createdAt,value
2019-05-21T00:00:47.493Z,12.77
2019-05-21T00:03:16.967Z,11.57
2019-05-21T00:05:46.544Z,13.47
2019-05-21T00:08:16.000Z,11.57
2019-05-21T00:10:45.488Z,11.90
2019-05-21T00:13:15.620Z,11.23
2019-05-21T00:15:45.110Z,10.57
2019-05-21T00:18:14.591Z,10.60
2019-05-21T00:20:44.081Z,10.40
2019-05-21T00:23:32.923Z,10.47
2019-05-21T00:26:02.382Z,9.73
2019-05-21T00:28:38.174Z,9.03
2019-05-21T00:32:02.720Z,9.40
2019-05-21T00:35:28.709Z,8.57
2019-05-21T00:38:52.649Z,8.27
2019-05-21T00:42:04.775Z,7.90
2019-05-21T00:44:39.103Z,8.67
2019-05-21T00:47:12.294Z,9.10
2019-05-21T00:49:42.036Z,8.70
2019-05-21T00:52:11.672Z,7.83
2019-05-21T00:54:41.134Z,7.70
2019-05-21T00:57:10.679Z,6.93
2019-05-21T00:59:40.259Z,7.63
2019-05-21T01:02:09.740Z,7.20
2019-05-21T01:04:39.305Z,6.83
2019-05-21T01:07:08.891Z,7.20
2019-05-21T01:09:38.407Z,7.10
2019-05-21T01:12:07.862Z,7.07
2019-05-21T01:14:37.359Z,6.87
2019-05-21T01:17:26.214Z,7.57
2019-05-21T01:19:55.693Z,7.80
2019-05-21T01:22:25.180Z,6.90
2019-05-21T01:24:56.010Z,8.03
2019-05-21T01:27:25.498Z,8.63
2019-05-21T01:29:55.025Z,9.20
2019-05-21T01:32:24.572Z,9.37
2019-05-21T01:34:54.052Z,9.10
2019-05-21T01:37:23.513Z,8.47
2019-05-21T01:39:53.007Z,8.20
2019-05-21T01:42:22.503Z,8.10
2019-05-21T01:44:51.994Z,9.17
2019-05-21T01:47:21.494Z,9.67
2019-05-21T01:50:10.309Z,8.33
2019-05-21T01:52:39.826Z,8.20
2019-05-21T01:55:09.329Z,8.20
2019-05-21T01:57:38.813Z,8.80
2019-05-21T02:00:08.705Z,9.20
2019-05-21T02:02:38.181Z,9.20
2019-05-21T02:05:08.018Z,9.27
2019-05-21T02:07:38.204Z,9.10
2019-05-21T02:10:08.517Z,8.47
2019-05-21T02:12:38.069Z,8.23
2019-05-21T02:15:08.807Z,8.63
2019-05-21T02:17:57.714Z,7.80
2019-05-21T02:20:27.306Z,6.63
2019-05-21T02:22:56.988Z,7.60
2019-05-21T02:25:26.542Z,7.00
2019-05-21T02:28:15.455Z,8.23
2019-05-21T02:30:44.979Z,7.37
2019-05-21T02:33:14.450Z,7.33
2019-05-21T02:35:54.206Z,6.90
2019-05-21T02:38:15.116Z,7.13
2019-05-21T02:40:44.708Z,6.90
2019-05-21T02:43:14.162Z,7.13
2019-05-21T02:45:43.664Z,6.97
2019-05-21T02:48:13.130Z,7.50
2019-05-21T02:50:42.618Z,7.23
2019-05-21T02:53:12.078Z,7.37
2019-05-21T02:55:41.570Z,8.33
2019-05-21T02:58:11.054Z,8.27
2019-05-21T03:00:54.094Z,7.40
2019-05-21T03:03:25.307Z,8.60
2019-05-21T03:06:12.139Z,8.43
2019-05-21T03:08:26.165Z,7.57
2019-05-21T03:10:55.684Z,8.40
2019-05-21T03:13:25.183Z,8.60
2019-05-21T03:15:54.740Z,7.63
2019-05-21T03:18:24.289Z,8.03
2019-05-21T03:20:53.749Z,8.33
2019-05-21T03:23:42.594Z,7.77
2019-05-21T03:26:12.070Z,6.03
2019-05-21T03:28:41.556Z,5.27
2019-05-21T03:31:11.047Z,4.77
2019-05-21T03:33:40.501Z,5.03
2019-05-21T03:36:33.334Z,4.70
2019-05-21T03:39:00.604Z,4.90
2019-05-21T03:41:30.081Z,4.83
2019-05-21T03:43:59.580Z,4.77
2019-05-21T03:46:29.045Z,5.13
2019-05-21T03:48:58.574Z,4.87
2019-05-21T03:51:28.209Z,5.80
2019-05-21T03:53:57.683Z,5.97
2019-05-21T03:56:27.140Z,5.40
2019-05-21T03:58:56.620Z,5.80
2019-05-21T04:01:26.184Z,5.23
2019-05-21T04:03:55.678Z,5.47
2019-05-21T04:06:28.722Z,5.43
2019-05-21T04:08:56.416Z,4.93
2019-05-21T04:11:25.991Z,5.53
2019-05-21T04:13:55.443Z,5.07
2019-05-21T04:16:32.320Z,5.87
2019-05-21T04:19:08.878Z,5.27
2019-05-21T04:21:38.375Z,6.30
2019-05-21T04:24:09.184Z,5.30
2019-05-21T04:26:39.179Z,6.03
2019-05-21T04:29:08.659Z,5.43
2019-05-21T04:31:38.114Z,5.50
2019-05-21T04:34:07.620Z,6.10
2019-05-21T04:36:37.097Z,6.10
2019-05-21T04:39:07.708Z,5.47
2019-05-21T04:41:37.202Z,5.90
2019-05-21T04:44:06.664Z,6.13
2019-05-21T04:46:36.111Z,6.20
2019-05-21T04:49:05.681Z,6.00
2019-05-21T04:51:35.165Z,6.50
2019-05-21T04:54:04.699Z,7.93
2019-05-21T04:56:34.219Z,7.27
2019-05-21T04:59:03.681Z,7.63
2019-05-21T05:01:33.171Z,8.63
2019-05-21T05:04:02.629Z,9.03
2019-05-21T05:06:32.122Z,8.63
2019-05-21T05:09:01.591Z,9.80
2019-05-21T05:11:31.099Z,9.17
2019-05-21T05:14:00.559Z,10.07
2019-05-21T05:16:30.124Z,9.93
2019-05-21T05:18:59.679Z,10.63
2019-05-21T05:21:29.171Z,11.10
2019-05-21T05:23:58.690Z,10.40
2019-05-21T05:26:28.159Z,10.27
2019-05-21T05:28:57.779Z,11.10
2019-05-21T05:31:27.262Z,11.63
2019-05-21T05:33:56.784Z,10.63
2019-05-21T05:36:26.255Z,11.13
2019-05-21T05:38:55.758Z,11.97
2019-05-21T05:41:25.249Z,11.90
2019-05-21T05:43:54.718Z,11.77
2019-05-21T05:46:24.208Z,11.90
2019-05-21T05:48:55.324Z,12.97
2019-05-21T05:51:24.874Z,11.70
2019-05-21T05:53:57.453Z,12.23
2019-05-21T05:56:28.771Z,11.07
2019-05-21T05:58:58.239Z,12.30
2019-05-21T06:01:29.567Z,11.77
2019-05-21T06:03:59.029Z,14.40
2019-05-21T06:06:28.523Z,12.47
2019-05-21T06:08:58.044Z,13.00
2019-05-21T06:11:27.652Z,10.90
2019-05-21T06:13:57.163Z,11.53
2019-05-21T06:16:26.719Z,11.77
2019-05-21T06:18:56.286Z,12.00
2019-05-21T06:21:25.757Z,12.50
2019-05-21T06:23:55.336Z,12.53
2019-05-21T06:26:24.860Z,12.30
2019-05-21T06:28:54.359Z,11.00
2019-05-21T06:31:24.036Z,12.60
2019-05-21T06:33:53.542Z,11.53
2019-05-21T06:36:23.071Z,12.23
2019-05-21T06:38:52.571Z,10.93
2019-05-21T06:41:22.355Z,11.57
2019-05-21T06:43:51.895Z,10.73
2019-05-21T06:46:21.470Z,10.67
2019-05-21T06:48:50.960Z,11.73
2019-05-21T06:51:20.471Z,13.40
2019-05-21T06:54:09.350Z,10.60
2019-05-21T06:56:38.849Z,10.97
2019-05-21T06:59:08.316Z,9.60
2019-05-21T07:01:37.799Z,10.33
2019-05-21T07:04:07.306Z,10.37
2019-05-21T07:06:36.869Z,11.10
2019-05-21T07:09:07.683Z,11.87
2019-05-21T07:11:37.187Z,13.17
2019-05-21T07:14:06.728Z,13.73
2019-05-21T07:16:36.202Z,13.10
2019-05-21T07:19:05.795Z,12.87
2019-05-21T07:21:35.281Z,13.10
2019-05-21T07:24:04.839Z,10.70
2019-05-21T07:26:34.494Z,11.47
2019-05-21T07:29:04.068Z,11.57
2019-05-21T07:31:33.617Z,12.80
2019-05-21T07:34:03.171Z,11.67
2019-05-21T07:36:34.389Z,12.40
2019-05-21T07:39:05.675Z,9.53
2019-05-21T07:41:35.152Z,11.07
2019-05-21T07:44:04.876Z,10.27
2019-05-21T07:46:34.419Z,11.80
2019-05-21T07:49:04.132Z,12.47
2019-05-21T07:51:33.616Z,11.53
2019-05-21T07:54:03.117Z,12.50
2019-05-21T07:56:32.596Z,11.33
2019-05-21T07:59:02.376Z,11.70
2019-05-21T08:01:31.877Z,11.43
2019-05-21T08:04:01.409Z,10.93
2019-05-21T08:06:30.879Z,11.93
2019-05-21T08:09:12.426Z,12.43
2019-05-21T08:11:31.622Z,11.33
2019-05-21T08:14:01.101Z,11.03
2019-05-21T08:16:30.604Z,11.93
2019-05-21T08:19:00.098Z,11.20
2019-05-21T08:21:29.544Z,12.10
2019-05-21T08:23:59.044Z,11.23
2019-05-21T08:26:28.610Z,11.73
2019-05-21T08:28:58.221Z,11.73
2019-05-21T08:31:27.677Z,10.90
2019-05-21T08:33:57.196Z,11.00
2019-05-21T08:36:26.687Z,11.13
2019-05-21T08:38:56.166Z,9.63
2019-05-21T08:41:25.864Z,9.17
2019-05-21T08:43:55.322Z,9.37
2019-05-21T08:46:24.813Z,8.00
2019-05-21T08:48:54.280Z,9.40
2019-05-21T08:51:23.790Z,8.00
2019-05-21T08:53:53.306Z,7.40
2019-05-21T08:56:22.773Z,6.90
2019-05-21T08:58:52.253Z,8.30
2019-05-21T09:01:22.019Z,6.87
2019-05-21T09:03:51.904Z,6.63
2019-05-21T09:06:21.541Z,6.20
2019-05-21T09:08:51.011Z,6.43
2019-05-21T09:11:20.511Z,6.23
2019-05-21T09:13:50.069Z,6.57
2019-05-21T09:16:19.550Z,6.70
2019-05-21T09:18:49.043Z,6.57
2019-05-21T09:21:18.629Z,6.87
2019-05-21T09:23:48.933Z,6.33
2019-05-21T09:26:18.632Z,6.53
2019-05-21T09:28:48.122Z,7.57
2019-05-21T09:31:17.681Z,6.27
2019-05-21T09:33:47.212Z,5.90
2019-05-21T09:36:16.692Z,6.20
2019-05-21T09:38:46.205Z,6.43
2019-05-21T09:41:15.661Z,6.80
2019-05-21T09:43:45.235Z,6.40
2019-05-21T09:46:14.768Z,6.83
2019-05-21T09:48:44.260Z,8.57
2019-05-21T09:51:19.863Z,7.70
2019-05-21T09:53:45.097Z,7.00
2019-05-21T09:56:33.147Z,9.67
2019-05-21T09:59:25.336Z,9.73
2019-05-21T10:01:59.263Z,8.63
2019-05-21T10:04:28.828Z,8.50
2019-05-21T10:06:58.333Z,8.87
2019-05-21T10:09:28.144Z,8.70
2019-05-21T10:12:17.082Z,9.07
2019-05-21T10:14:46.588Z,8.30
2019-05-21T10:17:16.116Z,7.80
2019-05-21T10:20:06.724Z,7.10
2019-05-21T10:22:36.211Z,7.20
2019-05-21T10:25:08.238Z,6.53
2019-05-21T10:27:37.783Z,7.17
2019-05-21T10:30:07.884Z,7.67
2019-05-21T10:32:37.407Z,7.00
2019-05-21T10:35:07.107Z,7.20
2019-05-21T10:37:36.762Z,7.40
2019-05-21T10:40:08.081Z,8.30
2019-05-21T10:42:43.208Z,7.90
2019-05-21T10:45:13.099Z,8.23
2019-05-21T10:47:42.569Z,8.83
2019-05-21T10:50:12.310Z,8.77
2019-05-21T10:52:41.803Z,7.47
2019-05-21T10:55:15.985Z,7.23
2019-05-21T10:57:44.664Z,7.43
2019-05-21T11:00:16.572Z,7.03
2019-05-21T11:02:47.731Z,7.07
2019-05-21T11:05:19.114Z,7.33
2019-05-21T11:07:48.650Z,8.23
2019-05-21T11:10:18.361Z,7.70
2019-05-21T11:12:47.905Z,7.93
2019-05-21T11:15:18.554Z,9.20
2019-05-21T11:18:07.113Z,8.10
2019-05-21T11:20:19.489Z,8.60
2019-05-21T11:22:48.981Z,9.10
2019-05-21T11:25:18.457Z,9.00
2019-05-21T11:27:48.105Z,9.80
2019-05-21T11:30:19.075Z,10.57
2019-05-21T11:32:48.797Z,10.27
2019-05-21T11:35:18.717Z,10.00
2019-05-21T11:37:48.376Z,10.30
2019-05-21T11:40:19.361Z,10.33
2019-05-21T11:42:48.857Z,12.47
2019-05-21T11:45:31.637Z,10.90
2019-05-21T11:47:54.526Z,10.50
2019-05-21T11:50:23.824Z,11.10
2019-05-21T11:52:53.382Z,11.70
2019-05-21T11:55:23.033Z,11.77
2019-05-21T11:57:52.641Z,11.77
2019-05-21T12:00:25.726Z,11.90
2019-05-21T12:02:55.190Z,11.90
2019-05-21T12:05:44.129Z,13.30
2019-05-21T12:08:13.686Z,11.90
2019-05-21T12:10:43.122Z,11.70
2019-05-21T12:13:12.643Z,12.00
2019-05-21T12:15:42.491Z,11.33
2019-05-21T12:18:31.359Z,10.77
2019-05-21T12:21:00.827Z,10.47
2019-05-21T12:23:30.332Z,11.40
2019-05-21T12:25:59.962Z,11.53
2019-05-21T12:28:29.464Z,11.13
2019-05-21T12:30:59.038Z,11.13
2019-05-21T12:33:28.536Z,11.27
2019-05-21T12:36:17.444Z,11.37
2019-05-21T12:38:47.011Z,12.13
2019-05-21T12:41:16.520Z,12.67
2019-05-21T12:43:46.006Z,12.37
2019-05-21T12:46:15.651Z,13.00
2019-05-21T12:48:45.161Z,13.47
2019-05-21T12:51:14.855Z,14.20
2019-05-21T12:53:44.349Z,15.00
2019-05-21T12:56:13.871Z,15.23
2019-05-21T12:58:43.415Z,14.10
2019-05-21T13:01:13.060Z,15.83
2019-05-21T13:03:42.619Z,14.60
2019-05-21T13:06:12.164Z,14.47
2019-05-21T13:08:41.663Z,13.77
2019-05-21T13:11:11.133Z,13.37
2019-05-21T13:13:40.631Z,14.63
2019-05-21T13:16:10.442Z,13.80
2019-05-21T13:18:39.937Z,12.83
2019-05-21T13:21:09.675Z,12.77
2019-05-21T13:23:39.823Z,11.50
2019-05-21T13:26:10.322Z,12.40
2019-05-21T13:28:39.913Z,11.47
2019-05-21T13:31:09.842Z,12.13
2019-05-21T13:33:39.307Z,11.37
2019-05-21T13:36:08.973Z,11.30
2019-05-21T13:38:38.470Z,12.20
2019-05-21T13:41:08.686Z,12.60
2019-05-21T13:43:57.534Z,11.60
2019-05-21T13:46:27.062Z,12.60
2019-05-21T13:48:56.619Z,12.50
2019-05-21T13:51:26.686Z,13.70
2019-05-21T13:53:56.196Z,13.53
2019-05-21T13:56:25.644Z,15.37
2019-05-21T13:58:55.227Z,14.07
2019-05-21T14:01:40.007Z,14.07
2019-05-21T14:03:56.804Z,14.83
2019-05-21T14:06:26.371Z,15.07
2019-05-21T14:08:55.868Z,15.40
2019-05-21T14:11:25.716Z,15.70
2019-05-21T14:13:55.197Z,14.77
2019-05-21T14:16:24.834Z,14.70
2019-05-21T14:18:54.470Z,14.23
2019-05-21T14:21:23.992Z,14.63
2019-05-21T14:23:53.499Z,14.87
2019-05-21T14:26:23.022Z,15.03
2019-05-21T14:28:52.498Z,15.70
2019-05-21T14:31:22.050Z,14.13
2019-05-21T14:33:51.675Z,14.03
2019-05-21T14:36:21.250Z,14.10
2019-05-21T14:41:49.118Z,16.07
2019-05-21T14:44:18.709Z,14.73
2019-05-21T14:46:48.172Z,14.67
2019-05-21T14:49:17.698Z,15.57
2019-05-21T14:51:47.200Z,15.23
2019-05-21T14:54:25.988Z,15.50
2019-05-21T14:56:48.182Z,13.97
2019-05-21T14:59:17.771Z,13.20
2019-05-21T15:01:47.297Z,12.67
2019-05-21T15:04:16.987Z,13.03
2019-05-21T15:06:46.704Z,12.33
2019-05-21T15:09:16.396Z,11.53
2019-05-21T15:11:45.943Z,12.73
2019-05-21T15:14:15.577Z,11.97
2019-05-21T15:16:45.119Z,11.27
2019-05-21T15:19:14.674Z,11.37
2019-05-21T15:21:45.888Z,12.80
2019-05-21T15:24:15.850Z,13.83
2019-05-21T15:26:45.410Z,13.90
2019-05-21T15:29:14.897Z,13.10
2019-05-21T15:31:44.432Z,13.43
2019-05-21T15:34:14.017Z,12.73
2019-05-21T15:36:43.621Z,12.27
2019-05-21T15:39:13.187Z,11.90
2019-05-21T15:41:42.690Z,12.93
2019-05-21T15:44:12.293Z,12.10
2019-05-21T15:46:48.115Z,12.17
2019-05-21T15:49:13.014Z,13.50
2019-05-21T15:51:42.545Z,13.03
2019-05-21T15:54:12.135Z,12.03
2019-05-21T15:56:41.633Z,12.63
2019-05-21T15:59:11.203Z,11.97
2019-05-21T16:01:41.024Z,13.43
2019-05-21T16:04:10.560Z,12.90
2019-05-21T16:06:40.042Z,12.63
2019-05-21T16:09:29.053Z,12.37
2019-05-21T16:11:58.569Z,12.57
2019-05-21T16:14:28.049Z,12.30
2019-05-21T16:16:57.562Z,12.20
2019-05-21T16:19:27.033Z,11.53
2019-05-21T16:21:56.611Z,11.87
2019-05-21T16:24:26.086Z,11.33
2019-05-21T16:26:55.559Z,10.60
2019-05-21T16:29:25.065Z,10.33
2019-05-21T16:31:54.630Z,10.43
2019-05-21T16:34:24.209Z,10.87
2019-05-21T16:36:53.742Z,10.67
2019-05-21T16:39:23.329Z,11.67
2019-05-21T16:41:52.861Z,10.67
2019-05-21T16:44:22.373Z,11.40
2019-05-21T16:46:52.002Z,10.90
2019-05-21T16:49:21.507Z,12.30
2019-05-21T16:51:50.984Z,11.23
2019-05-21T16:54:20.583Z,12.33
2019-05-21T16:56:50.118Z,12.23
2019-05-21T16:59:19.702Z,10.10
2019-05-21T17:01:49.208Z,10.37
2019-05-21T17:04:18.787Z,10.63
2019-05-21T17:06:48.289Z,10.27
2019-05-21T17:09:17.869Z,10.13
2019-05-21T17:11:59.019Z,11.43
2019-05-21T17:14:18.743Z,10.93
2019-05-21T17:16:48.251Z,10.97
2019-05-21T17:19:17.824Z,9.83
2019-05-21T17:21:47.365Z,10.00
2019-05-21T17:24:16.927Z,10.20
2019-05-21T17:26:46.441Z,10.77
2019-05-21T17:29:16.128Z,10.47
2019-05-21T17:31:45.614Z,10.53
2019-05-21T17:34:15.202Z,10.50
2019-05-21T17:36:44.669Z,9.77
2019-05-21T17:39:14.323Z,9.60
2019-05-21T17:41:43.789Z,10.00
2019-05-21T17:44:13.290Z,8.63
2019-05-21T17:46:42.855Z,9.37
2019-05-21T17:49:12.418Z,9.23
2019-05-21T17:51:41.924Z,10.37
2019-05-21T17:54:11.540Z,10.27
2019-05-21T17:56:41.026Z,9.33
2019-05-21T17:59:10.812Z,9.97
2019-05-21T18:01:40.460Z,10.87
2019-05-21T18:04:10.201Z,10.17
2019-05-21T18:06:40.788Z,9.77
2019-05-21T18:09:13.405Z,9.60
2019-05-21T18:11:43.201Z,9.57
2019-05-21T18:14:12.953Z,9.57
2019-05-21T18:16:42.834Z,8.97
2019-05-21T18:19:12.559Z,8.87
2019-05-21T18:21:42.785Z,9.00
2019-05-21T18:24:12.613Z,9.57
2019-05-21T18:26:42.287Z,8.67
2019-05-21T18:29:12.014Z,9.10
2019-05-21T18:31:41.543Z,9.97
2019-05-21T18:34:11.116Z,9.83
2019-05-21T18:36:40.605Z,10.10
2019-05-21T18:39:10.287Z,10.37
2019-05-21T18:41:39.758Z,10.03
2019-05-21T18:44:09.414Z,11.47
2019-05-21T18:46:38.943Z,11.00
2019-05-21T18:49:08.493Z,10.37
2019-05-21T18:51:38.086Z,9.83
2019-05-21T18:54:07.704Z,11.93
2019-05-21T18:56:37.279Z,11.20
2019-05-21T18:59:06.953Z,10.97
2019-05-21T19:01:38.523Z,11.77
2019-05-21T19:04:07.749Z,11.23
2019-05-21T19:06:37.360Z,8.80
2019-05-21T19:09:08.419Z,10.27
2019-05-21T19:11:38.000Z,9.73
2019-05-21T19:14:07.768Z,10.43
2019-05-21T19:16:37.342Z,10.10
2019-05-21T19:19:07.922Z,9.67
2019-05-21T19:21:37.538Z,7.60
2019-05-21T19:24:07.108Z,10.47
2019-05-21T19:26:36.593Z,8.93
2019-05-21T19:29:07.868Z,10.27
2019-05-21T19:31:37.681Z,10.63
2019-05-21T19:34:07.251Z,11.67
2019-05-21T19:36:36.833Z,9.70
2019-05-21T19:39:08.159Z,9.00
2019-05-21T19:41:37.640Z,9.77
2019-05-21T19:44:07.665Z,11.03
2019-05-21T19:46:37.181Z,11.00
2019-05-21T19:49:06.678Z,9.53
2019-05-21T19:51:36.190Z,8.80
2019-05-21T19:54:05.773Z,9.20
2019-05-21T19:56:36.475Z,9.60
2019-05-21T19:59:06.573Z,9.30
2019-05-21T20:01:36.271Z,9.40
2019-05-21T20:04:06.963Z,9.63
2019-05-21T20:06:37.420Z,8.93
2019-05-21T20:09:09.569Z,9.03
2019-05-21T20:11:39.240Z,9.60
2019-05-21T20:14:08.773Z,9.50
2019-05-21T20:16:39.994Z,9.77
2019-05-21T20:19:10.276Z,9.77
2019-05-21T20:21:40.780Z,9.43
2019-05-21T20:24:10.588Z,9.80
2019-05-21T20:26:40.790Z,9.53
2019-05-21T20:29:10.881Z,9.53
2019-05-21T20:31:40.838Z,8.73
2019-05-21T20:34:11.738Z,9.60
2019-05-21T20:36:41.739Z,9.97
2019-05-21T20:39:13.082Z,9.30
2019-05-21T20:41:43.680Z,9.73
2019-05-21T20:44:14.872Z,9.50
2019-05-21T20:46:45.401Z,9.40
2019-05-21T20:49:15.973Z,8.90
2019-05-21T20:51:45.817Z,9.33
2019-05-21T20:54:16.980Z,9.20
2019-05-21T20:56:46.538Z,8.97
2019-05-21T20:59:16.065Z,8.60
2019-05-21T21:01:46.013Z,8.53
2019-05-21T21:04:15.589Z,7.93
2019-05-21T21:06:45.438Z,8.13
2019-05-21T21:09:15.314Z,7.73
2019-05-21T21:11:45.391Z,7.80
2019-05-21T21:14:18.274Z,8.50
2019-05-21T21:16:48.546Z,7.83
2019-05-21T21:19:37.528Z,7.93
2019-05-21T21:22:07.377Z,8.40
2019-05-21T21:24:38.226Z,8.40
2019-05-21T21:27:08.065Z,8.23
2019-05-21T21:29:37.904Z,8.73
2019-05-21T21:32:07.846Z,8.23
2019-05-21T21:34:37.341Z,9.37
2019-05-21T21:37:07.172Z,8.60
2019-05-21T21:39:37.868Z,9.43
2019-05-21T21:42:08.091Z,8.80
2019-05-21T21:44:39.024Z,9.73
2019-05-21T21:47:08.973Z,9.40
2019-05-21T21:49:39.394Z,11.10
2019-05-21T21:52:09.928Z,10.17
2019-05-21T21:54:39.722Z,9.87
2019-05-21T21:57:09.660Z,10.80
2019-05-21T21:59:39.340Z,11.30
2019-05-21T22:02:23.620Z,9.50
2019-05-21T22:04:53.466Z,10.70
2019-05-21T22:07:24.452Z,11.00
2019-05-21T22:09:54.468Z,10.50
2019-05-21T22:12:25.208Z,11.17
2019-05-21T22:14:58.414Z,10.90
2019-05-21T22:17:28.415Z,10.40
2019-05-21T22:19:58.720Z,10.27
2019-05-21T22:22:28.726Z,10.93
2019-05-21T22:24:58.444Z,10.77
2019-05-21T22:27:28.004Z,10.87
2019-05-21T22:29:57.553Z,10.87
2019-05-21T22:32:27.705Z,10.70
2019-05-21T22:34:57.180Z,11.20
2019-05-21T22:37:27.854Z,11.20
2019-05-21T22:39:57.420Z,11.20
2019-05-21T22:42:27.839Z,10.03
2019-05-21T22:45:07.367Z,11.80
2019-05-21T22:47:29.374Z,10.67
2019-05-21T22:49:58.867Z,10.93
2019-05-21T22:52:28.566Z,13.07
2019-05-21T22:54:58.001Z,11.13
2019-05-21T22:57:27.508Z,13.33
2019-05-21T22:59:57.082Z,12.50
2019-05-21T23:02:28.374Z,14.60
2019-05-21T23:04:58.021Z,13.53
2019-05-21T23:07:27.497Z,12.40
2019-05-21T23:09:57.154Z,12.70
2019-05-21T23:12:27.381Z,14.40
2019-05-21T23:14:57.147Z,13.27
2019-05-21T23:17:26.697Z,11.77
2019-05-21T23:19:57.006Z,11.80
2019-05-21T23:22:27.589Z,12.33
2019-05-21T23:24:57.359Z,11.20
2019-05-21T23:27:27.379Z,11.10
2019-05-21T23:29:57.130Z,13.53
2019-05-21T23:32:26.948Z,11.83
2019-05-21T23:34:57.260Z,12.87
2019-05-21T23:37:28.800Z,13.37
2019-05-21T23:39:59.075Z,11.30
2019-05-21T23:42:30.069Z,11.20
2019-05-21T23:45:00.004Z,11.00
2019-05-21T23:47:30.155Z,10.43
2019-05-21T23:49:59.990Z,11.33
2019-05-21T23:52:31.008Z,10.07
2019-05-21T23:55:01.203Z,10.40
2019-05-21T23:57:32.773Z,11.77
